LFGL weather

Lons Le Saulnier Courlaoux Airfield
Franche-Comté, France

Public forecast

Using degrees Celsius for public forecast. Weather courtesy of forecast.io.

METAR (pilot weather report)

Closest report is Dole-Tavaux Airport, 22.1 nm (40.9 km) N. Retrieved 2019/07/21 23:00 UTC (16 minutes ago):

LFGJ 212300Z AUTO VRB02KT CAVOK 20/18 Q1022

TAF (pilot weather forecast)

Closest forecast is Geneva Cointrin International Airport, 37.3 nm (69.0 km) SE. Retrieved 2019/07/21 21:36 UTC (2 hours ago):

TAF LSGG 212025Z 2121/2303 VRB03KT CAVOK TX32/2215Z TN17/2204Z BECMG 2209/2211 05007KT 9999 FEW050 SCT380 BECMG 2217/2219 VRB03KT CAVOK